Dark Knight — 9HB5452 — position and weather

sailwx.info

Track history (hours):
 
Tides and Currents Weather Stations Pressure Air Temp Water Temp Dewpoint Dewpoint Depression Visibility Wind Speed Wind Dir Waves Ship Positions

Dark Knight

Last reported at 2018-Apr-22 05:47 UTC. Time now 2018-Apr-22 08:27 UTC.
Position N 39°32' E 002°34'.

Length 27 m; draft 2.2 m.

Type: Pleasure craft. MMSI: 215000704.

Date/timePositionNaut miles runAvg speedWind from/ knotsBaromVisibWave heightAir tempDewpointWater temp
2018-Apr-22 05:47N 39°32' E 002°34'0 0.0
2018-Apr-22 05:22N 39°32' E 002°34'0 0.0
2018-Apr-21 16:44N 39°32' E 002°34'0 0.0
2018-Apr-21 16:14N 39°32' E 002°34'0 1.7
2018-Apr-21 16:00N 39°31' E 002°34'1 2.2
2018-Apr-21 15:30N 39°32' E 002°35'0 0.0
2018-Apr-21 14:59N 39°32' E 002°35'0 0.0
2018-Apr-21 14:30N 39°32' E 002°35'0 0.0
2018-Apr-21 14:00N 39°32' E 002°35'0 0.0
2018-Apr-21 13:28N 39°32' E 002°35'0 0.0
2018-Apr-21 13:00N 39°32' E 002°35'0 0.0
2018-Apr-21 12:30N 39°32' E 002°35'3 5.3
2018-Apr-21 11:59N 39°30' E 002°33'2 1.5
2018-Apr-21 10:46N 39°28' E 002°31'0 0.1
2018-Apr-21 10:29N 39°28' E 002°31'0 0.0
2018-Apr-21 10:00N 39°28' E 002°31'0 0.4
2018-Apr-21 09:30N 39°28' E 002°32'4 3.0
2018-Apr-21 08:12N 39°32' E 002°34'0 0.0
2018-Apr-21 07:17N 39°32' E 002°34'0 0.0
2018-Apr-21 06:58N 39°32' E 002°34'0 0.0
2018-Apr-21 06:12N 39°32' E 002°34'0 0.0
2018-Apr-21 05:59N 39°32' E 002°34'0 0.0
2018-Apr-21 05:20N 39°32' E 002°34'0 0.0
2018-Apr-21 05:00N 39°32' E 002°34'0 0.0
2018-Apr-20 21:42N 39°32' E 002°34'0 0.0
2018-Apr-20 21:28N 39°32' E 002°34'0 0.0
2018-Apr-20 18:41N 39°32' E 002°34'0 0.0
2018-Apr-20 18:19N 39°32' E 002°34'0 0.0
2018-Apr-20 17:46N 39°32' E 002°34'312.2
2018-Apr-20 17:29N 39°29' E 002°32'1 1.3
2018-Apr-20 16:58N 39°28' E 002°31'0 0.0
2018-Apr-20 16:24N 39°28' E 002°31'0 0.0
2018-Apr-20 13:19N 39°28' E 002°31'0 0.0
2018-Apr-20 13:00N 39°28' E 002°31'0 0.0
2018-Apr-20 12:03N 39°28' E 002°31'0 0.0
2018-Apr-20 11:45N 39°28' E 002°31'0 0.0
2018-Apr-20 11:20N 39°28' E 002°31'0 0.0
2018-Apr-20 10:59N 39°28' E 002°31'0 0.6
2018-Apr-20 10:24N 39°28' E 002°32'4 9.4
2018-Apr-20 10:00N 39°32' E 002°34'0 0.0
2018-Apr-20 09:21N 39°32' E 002°34'0 0.0
2018-Apr-20 08:52N 39°32' E 002°34'0 0.0
2018-Apr-20 08:19N 39°32' E 002°34'0 0.0
2018-Apr-20 06:23N 39°32' E 002°34'0 0.0
2018-Apr-20 05:59N 39°32' E 002°34'0 0.0
2018-Apr-20 04:43N 39°32' E 002°34'0 0.0
2018-Apr-20 04:25N 39°32' E 002°34'0 0.0
2018-Apr-19 10:36N 39°32' E 002°34'0 0.0
2018-Apr-19 10:23N 39°32' E 002°34'0 0.0
2018-Apr-19 09:50N 39°32' E 002°34'0 0.0
2018-Apr-19 09:27N 39°32' E 002°34'0 0.0
2018-Apr-19 07:40N 39°32' E 002°34'0 0.0
2018-Apr-19 07:16N 39°32' E 002°34'0 0.0
2018-Apr-19 05:52N 39°32' E 002°34'0 0.0
2018-Apr-19 05:15N 39°32' E 002°34'0 0.0
2018-Apr-18 12:36N 39°32' E 002°34'0 0.0
2018-Apr-18 10:56N 39°32' E 002°34'0 0.0
2018-Apr-17 11:00N 39°32' E 002°34'2 3.8
2018-Apr-17 10:30N 39°33' E 002°36'0 0.0
2018-Apr-17 10:00N 39°33' E 002°36'0 0.0
2018-Apr-17 09:30N 39°33' E 002°36'0 0.0
2018-Apr-17 09:00N 39°33' E 002°36'0 0.0
2018-Apr-17 08:30N 39°33' E 002°36'0 0.0
2018-Apr-17 08:00N 39°33' E 002°36'0 0.0
2018-Apr-17 07:30N 39°33' E 002°36'0 0.0
2018-Apr-17 07:00N 39°33' E 002°36'0 0.0
2018-Apr-17 06:30N 39°33' E 002°36'0 0.0
2018-Apr-16 11:18N 39°33' E 002°36'0 0.0
2018-Apr-16 09:54N 39°33' E 002°36'  
2018-Apr-12 11:14N 39°33' E 002°36'0 0.0
2018-Apr-12 11:00N 39°33' E 002°36'  
Track history (hours):
 
Tides and Currents Weather Stations Pressure Air Temp Water Temp Dewpoint Dewpoint Depression Visibility Wind Speed Wind Dir Waves Ship Positions

Dark Knight

Last reported at 2018-Apr-22 05:47 UTC. Time now 2018-Apr-22 08:27 UTC.
Position N 39°32' E 002°34'.

Length 27 m; draft 2.2 m.

Type: Pleasure craft. MMSI: 215000704.

Date/timePositionNaut miles runAvg speedWind from/ knotsBaromVisibWave heightAir tempDewpointWater temp
2018-Apr-22 05:47N 39°32' E 002°34'0 0.0
2018-Apr-22 05:22N 39°32' E 002°34'0 0.0
2018-Apr-21 16:44N 39°32' E 002°34'0 0.0
2018-Apr-21 16:14N 39°32' E 002°34'0 1.7
2018-Apr-21 16:00N 39°31' E 002°34'1 2.2
2018-Apr-21 15:30N 39°32' E 002°35'0 0.0
2018-Apr-21 14:59N 39°32' E 002°35'0 0.0
2018-Apr-21 14:30N 39°32' E 002°35'0 0.0
2018-Apr-21 14:00N 39°32' E 002°35'0 0.0
2018-Apr-21 13:28N 39°32' E 002°35'0 0.0
2018-Apr-21 13:00N 39°32' E 002°35'0 0.0
2018-Apr-21 12:30N 39°32' E 002°35'3 5.3
2018-Apr-21 11:59N 39°30' E 002°33'2 1.5
2018-Apr-21 10:46N 39°28' E 002°31'0 0.1
2018-Apr-21 10:29N 39°28' E 002°31'0 0.0
2018-Apr-21 10:00N 39°28' E 002°31'0 0.4
2018-Apr-21 09:30N 39°28' E 002°32'4 3.0
2018-Apr-21 08:12N 39°32' E 002°34'0 0.0
2018-Apr-21 07:17N 39°32' E 002°34'0 0.0
2018-Apr-21 06:58N 39°32' E 002°34'0 0.0
2018-Apr-21 06:12N 39°32' E 002°34'0 0.0
2018-Apr-21 05:59N 39°32' E 002°34'0 0.0
2018-Apr-21 05:20N 39°32' E 002°34'0 0.0
2018-Apr-21 05:00N 39°32' E 002°34'0 0.0
2018-Apr-20 21:42N 39°32' E 002°34'0 0.0
2018-Apr-20 21:28N 39°32' E 002°34'0 0.0
2018-Apr-20 18:41N 39°32' E 002°34'0 0.0
2018-Apr-20 18:19N 39°32' E 002°34'0 0.0
2018-Apr-20 17:46N 39°32' E 002°34'312.2
2018-Apr-20 17:29N 39°29' E 002°32'1 1.3
2018-Apr-20 16:58N 39°28' E 002°31'0 0.0
2018-Apr-20 16:24N 39°28' E 002°31'0 0.0
2018-Apr-20 13:19N 39°28' E 002°31'0 0.0
2018-Apr-20 13:00N 39°28' E 002°31'0 0.0
2018-Apr-20 12:03N 39°28' E 002°31'0 0.0
2018-Apr-20 11:45N 39°28' E 002°31'0 0.0
2018-Apr-20 11:20N 39°28' E 002°31'0 0.0
2018-Apr-20 10:59N 39°28' E 002°31'0 0.6
2018-Apr-20 10:24N 39°28' E 002°32'4 9.4
2018-Apr-20 10:00N 39°32' E 002°34'0 0.0
2018-Apr-20 09:21N 39°32' E 002°34'0 0.0
2018-Apr-20 08:52N 39°32' E 002°34'0 0.0
2018-Apr-20 08:19N 39°32' E 002°34'0 0.0
2018-Apr-20 06:23N 39°32' E 002°34'0 0.0
2018-Apr-20 05:59N 39°32' E 002°34'0 0.0
2018-Apr-20 04:43N 39°32' E 002°34'0 0.0
2018-Apr-20 04:25N 39°32' E 002°34'0 0.0
2018-Apr-19 10:36N 39°32' E 002°34'0 0.0
2018-Apr-19 10:23N 39°32' E 002°34'0 0.0
2018-Apr-19 09:50N 39°32' E 002°34'0 0.0
2018-Apr-19 09:27N 39°32' E 002°34'0 0.0
2018-Apr-19 07:40N 39°32' E 002°34'0 0.0
2018-Apr-19 07:16N 39°32' E 002°34'0 0.0
2018-Apr-19 05:52N 39°32' E 002°34'0 0.0
2018-Apr-19 05:15N 39°32' E 002°34'0 0.0
2018-Apr-18 12:36N 39°32' E 002°34'0 0.0
2018-Apr-18 10:56N 39°32' E 002°34'0 0.0
2018-Apr-17 11:00N 39°32' E 002°34'2 3.8
2018-Apr-17 10:30N 39°33' E 002°36'0 0.0
2018-Apr-17 10:00N 39°33' E 002°36'0 0.0
2018-Apr-17 09:30N 39°33' E 002°36'0 0.0
2018-Apr-17 09:00N 39°33' E 002°36'0 0.0
2018-Apr-17 08:30N 39°33' E 002°36'0 0.0
2018-Apr-17 08:00N 39°33' E 002°36'0 0.0
2018-Apr-17 07:30N 39°33' E 002°36'0 0.0
2018-Apr-17 07:00N 39°33' E 002°36'0 0.0
2018-Apr-17 06:30N 39°33' E 002°36'0 0.0
2018-Apr-16 11:18N 39°33' E 002°36'0 0.0
2018-Apr-16 09:54N 39°33' E 002°36'  
2018-Apr-12 11:14N 39°33' E 002°36'0 0.0
2018-Apr-12 11:00N 39°33' E 002°36'  

Dump ship's entire track history